Terminal Aerodrome Forecast
Issued by NWS Austin/San Antonio, TX

Home | Current Version | Previous Version | Text Only | Print | Product List | Glossary On
Versions: 1 2 3 4 5 6 7 8 9 10 11 12 13 14 15 16 17 18 19 20 21 22 23 24 25 26 27 28 29 30 31 32 33 34 35
011
FTUS44 KEWX 182339
TAFAUS
TAF
KAUS 182339Z 1900/2006 33005KT P6SM OVC012
     FM190700 VRB03KT 1SM BR OVC006
     FM191600 22005KT 5SM BR SCT010 SCT250
     FM191700 22010KT P6SM FEW250
     FM200100 20005KT P6SM FEW250=

USA.gov is the U.S. government's official web portal to all federal, state and local government web resources and services.